createdAt,value
2022-09-18T00:00:45.270Z,51.54
2022-09-18T00:02:47.028Z,51.61
2022-09-18T00:04:48.559Z,51.79
2022-09-18T00:06:53.108Z,51.65
2022-09-18T00:08:59.294Z,51.61
2022-09-18T00:11:09.557Z,51.67
2022-09-18T00:13:11.684Z,51.64
2022-09-18T00:15:13.191Z,51.69
2022-09-18T00:17:15.016Z,51.61
2022-09-18T00:19:20.435Z,51.83
2022-09-18T00:21:24.793Z,51.76
2022-09-18T00:23:26.356Z,51.79
2022-09-18T00:25:28.106Z,51.76
2022-09-18T00:27:31.668Z,51.79
2022-09-18T00:29:33.147Z,51.79
2022-09-18T00:31:36.462Z,51.82
2022-09-18T00:33:40.024Z,51.77
2022-09-18T00:35:43.787Z,51.93
2022-09-18T00:37:51.319Z,51.88
2022-09-18T00:39:52.914Z,51.72
2022-09-18T00:41:54.549Z,51.92
2022-09-18T00:44:44.497Z,51.97
2022-09-18T00:46:48.980Z,51.81
2022-09-18T00:49:16.769Z,52.28
2022-09-18T00:51:19.111Z,52.14
2022-09-18T00:53:20.775Z,52.13
2022-09-18T00:55:35.519Z,52.46
2022-09-18T00:57:41.608Z,52.30
2022-09-18T00:59:46.498Z,52.24
2022-09-18T01:01:48.246Z,52.27
2022-09-18T01:03:49.689Z,52.11
2022-09-18T01:06:18.680Z,52.91
2022-09-18T01:08:59.897Z,52.48
2022-09-18T01:11:10.042Z,52.19
2022-09-18T01:13:23.041Z,52.31
2022-09-18T01:15:52.751Z,52.65
2022-09-18T01:18:26.093Z,52.45
2022-09-18T01:20:40.592Z,52.68
2022-09-18T01:23:14.072Z,52.88
2022-09-18T01:25:36.804Z,52.55
2022-09-18T01:27:50.799Z,52.96
2022-09-18T01:30:02.638Z,52.88
2022-09-18T01:32:28.129Z,52.74
2022-09-18T01:34:39.988Z,52.96
2022-09-18T01:36:49.202Z,53.13
2022-09-18T01:39:03.360Z,53.21
2022-09-18T01:41:14.591Z,52.92
2022-09-18T01:43:19.382Z,52.94
2022-09-18T01:45:34.062Z,53.16
2022-09-18T01:47:44.769Z,53.02
2022-09-18T01:49:48.653Z,53.16
2022-09-18T01:51:58.584Z,53.00
2022-09-18T01:54:04.862Z,53.41
2022-09-18T01:56:14.125Z,53.01
2022-09-18T01:58:19.018Z,52.82
2022-09-18T02:00:22.985Z,52.90
2022-09-18T02:02:43.678Z,53.04
2022-09-18T02:04:52.167Z,52.93
2022-09-18T02:07:14.610Z,53.35
2022-09-18T02:09:16.355Z,52.96
2022-09-18T02:11:22.737Z,53.21
2022-09-18T02:13:30.179Z,53.29
2022-09-18T02:15:36.393Z,53.16
2022-09-18T02:18:01.293Z,53.24
2022-09-18T02:20:25.526Z,53.43
2022-09-18T02:22:30.622Z,53.30
2022-09-18T02:24:36.735Z,52.95
2022-09-18T02:26:41.221Z,53.20
2022-09-18T02:28:45.193Z,53.12
2022-09-18T02:30:48.245Z,53.59
2022-09-18T02:32:56.514Z,53.23
2022-09-18T02:34:58.308Z,53.40
2022-09-18T02:37:18.673Z,53.22
2022-09-18T02:39:37.976Z,53.40
2022-09-18T02:42:03.996Z,53.39
2022-09-18T02:44:30.187Z,53.66
2022-09-18T02:46:42.593Z,53.41
2022-09-18T02:48:50.283Z,53.50
2022-09-18T02:51:15.010Z,53.58
2022-09-18T02:53:28.879Z,53.42
2022-09-18T02:55:43.852Z,53.53
2022-09-18T02:58:03.804Z,53.52
2022-09-18T03:00:08.417Z,53.45
2022-09-18T03:02:10.971Z,53.49
2022-09-18T03:04:19.392Z,53.44
2022-09-18T03:06:42.131Z,53.39
2022-09-18T03:08:43.780Z,53.38
2022-09-18T03:10:45.370Z,53.51
2022-09-18T03:12:47.100Z,53.31
2022-09-18T03:14:50.500Z,53.32
2022-09-18T03:16:52.561Z,53.39
2022-09-18T03:18:54.862Z,53.48
2022-09-18T03:20:57.428Z,53.47
2022-09-18T03:22:59.364Z,53.66
2022-09-18T03:25:00.927Z,53.39
2022-09-18T03:27:03.017Z,53.63
2022-09-18T03:29:12.104Z,53.60
2022-09-18T03:31:16.040Z,53.34
2022-09-18T03:33:19.260Z,53.54
2022-09-18T03:35:20.928Z,53.59
2022-09-18T03:37:22.889Z,53.58
2022-09-18T03:39:24.631Z,53.64
2022-09-18T03:41:28.165Z,53.51
2022-09-18T03:43:31.244Z,53.58
2022-09-18T03:45:33.042Z,53.45
2022-09-18T03:47:36.782Z,53.64
2022-09-18T03:49:38.651Z,53.60
2022-09-18T03:51:41.673Z,53.61
2022-09-18T03:53:43.496Z,53.61
2022-09-18T03:56:04.609Z,53.60
2022-09-18T03:58:24.954Z,53.51
2022-09-18T04:01:05.299Z,53.70
2022-09-18T04:03:18.849Z,53.55
2022-09-18T04:05:23.211Z,53.54
2022-09-18T04:07:50.859Z,53.32
2022-09-18T04:10:32.324Z,53.73
2022-09-18T04:12:34.107Z,53.87
2022-09-18T04:14:44.156Z,53.42
2022-09-18T04:16:45.835Z,53.89
2022-09-18T04:18:47.430Z,53.76
2022-09-18T04:20:49.201Z,53.80
2022-09-18T04:22:50.984Z,53.62
2022-09-18T04:24:52.825Z,53.69
2022-09-18T04:26:55.053Z,53.92
2022-09-18T04:28:59.727Z,53.54
2022-09-18T04:31:01.423Z,53.58
2022-09-18T04:33:05.260Z,53.79
2022-09-18T04:35:07.458Z,53.69
2022-09-18T04:37:10.613Z,53.80
2022-09-18T04:39:17.548Z,53.58
2022-09-18T04:41:21.856Z,53.69
2022-09-18T04:43:24.449Z,53.92
2022-09-18T04:45:29.157Z,53.66
2022-09-18T04:47:30.909Z,53.72
2022-09-18T04:49:32.636Z,53.86
2022-09-18T04:51:35.763Z,54.02
2022-09-18T04:53:38.116Z,53.86
2022-09-18T04:55:43.491Z,53.92
2022-09-18T04:57:45.235Z,53.93
2022-09-18T04:59:50.258Z,54.02
2022-09-18T05:01:52.257Z,54.02
2022-09-18T05:03:55.209Z,53.68
2022-09-18T05:06:04.325Z,53.92
2022-09-18T05:08:10.793Z,53.88
2022-09-18T05:10:12.435Z,53.95
2022-09-18T05:12:14.712Z,53.84
2022-09-18T05:14:16.249Z,53.89
2022-09-18T05:16:23.217Z,53.77
2022-09-18T05:18:42.122Z,54.03
2022-09-18T05:20:43.734Z,53.81
2022-09-18T05:22:47.215Z,54.01
2022-09-18T05:24:54.784Z,54.21
2022-09-18T05:26:56.494Z,53.98
2022-09-18T05:28:58.004Z,54.08
2022-09-18T05:31:00.686Z,53.85
2022-09-18T05:33:15.033Z,54.08
2022-09-18T05:35:18.464Z,54.09
2022-09-18T05:37:20.135Z,54.02
2022-09-18T05:39:29.971Z,54.04
2022-09-18T05:41:34.267Z,54.05
2022-09-18T05:43:41.257Z,54.37
2022-09-18T05:45:44.937Z,54.21
2022-09-18T05:47:59.338Z,54.51
2022-09-18T05:50:01.726Z,54.31
2022-09-18T05:52:03.284Z,54.12
2022-09-18T05:54:06.409Z,54.39
2022-09-18T05:56:21.440Z,54.27
2022-09-18T05:58:23.749Z,54.22
2022-09-18T06:00:28.920Z,54.27
2022-09-18T06:02:37.722Z,54.18
2022-09-18T06:04:46.955Z,54.27
2022-09-18T06:06:51.502Z,54.41
2022-09-18T06:08:56.424Z,54.19
2022-09-18T06:11:02.710Z,54.07
2022-09-18T06:13:12.166Z,54.19
2022-09-18T06:15:17.918Z,54.21
2022-09-18T06:17:22.601Z,54.32
2022-09-18T06:19:26.938Z,54.55
2022-09-18T06:21:31.321Z,54.36
2022-09-18T06:23:33.703Z,54.21
2022-09-18T06:25:40.580Z,54.15
2022-09-18T06:27:43.752Z,54.32
2022-09-18T06:29:47.285Z,54.46
2022-09-18T06:31:59.703Z,54.42
2022-09-18T06:34:02.436Z,54.44
2022-09-18T06:36:13.917Z,54.47
2022-09-18T06:38:33.132Z,54.57
2022-09-18T06:40:35.523Z,54.33
2022-09-18T06:43:06.302Z,54.50
2022-09-18T06:45:19.751Z,54.23
2022-09-18T06:47:24.797Z,54.58
2022-09-18T06:49:26.468Z,54.49
2022-09-18T06:51:31.156Z,54.76
2022-09-18T06:53:41.800Z,54.64
2022-09-18T06:55:44.079Z,54.53
2022-09-18T06:57:56.199Z,54.68
2022-09-18T06:59:58.038Z,54.61
2022-09-18T07:02:02.500Z,54.69
2022-09-18T07:04:24.467Z,54.91
2022-09-18T07:06:26.761Z,54.78
2022-09-18T07:08:28.557Z,54.74
2022-09-18T07:10:38.892Z,54.77
2022-09-18T07:12:40.570Z,54.85
2022-09-18T07:14:43.341Z,54.92
2022-09-18T07:16:46.535Z,54.82
2022-09-18T07:18:49.044Z,55.07
2022-09-18T07:20:53.887Z,55.26
2022-09-18T07:23:06.643Z,54.71
2022-09-18T07:25:17.431Z,54.94
2022-09-18T07:27:19.564Z,55.11
2022-09-18T07:29:23.941Z,55.00
2022-09-18T07:31:26.835Z,54.95
2022-09-18T07:33:35.957Z,55.00
2022-09-18T07:35:38.008Z,54.97
2022-09-18T07:37:39.961Z,55.01
2022-09-18T07:39:53.527Z,55.17
2022-09-18T07:42:17.350Z,55.28
2022-09-18T07:44:26.245Z,55.11
2022-09-18T07:46:28.009Z,55.44
2022-09-18T07:48:35.732Z,55.22
2022-09-18T07:50:59.140Z,55.41
2022-09-18T07:53:05.399Z,55.32
2022-09-18T07:55:11.324Z,55.10
2022-09-18T07:57:13.311Z,55.20
2022-09-18T07:59:29.687Z,55.26
2022-09-18T08:01:35.787Z,55.53
2022-09-18T08:03:41.585Z,55.38
2022-09-18T08:05:46.197Z,55.21
2022-09-18T08:07:47.918Z,55.49
2022-09-18T08:10:11.217Z,55.39
2022-09-18T08:12:25.489Z,55.28
2022-09-18T08:14:41.489Z,55.51
2022-09-18T08:16:55.785Z,55.52
2022-09-18T08:19:17.902Z,55.61
2022-09-18T08:21:26.937Z,55.75
2022-09-18T08:23:31.415Z,55.66
2022-09-18T08:25:34.246Z,55.70
2022-09-18T08:27:37.065Z,55.74
2022-09-18T08:29:38.912Z,55.79
2022-09-18T08:31:43.872Z,55.77
2022-09-18T08:33:45.956Z,55.65
2022-09-18T08:35:51.221Z,55.75
2022-09-18T08:38:05.350Z,55.78
2022-09-18T08:40:41.189Z,55.98
2022-09-18T08:43:15.276Z,55.93
2022-09-18T08:46:10.887Z,56.08
2022-09-18T08:48:19.646Z,56.01
2022-09-18T08:50:38.926Z,55.97
2022-09-18T08:52:48.943Z,55.87
2022-09-18T08:55:13.106Z,56.19
2022-09-18T08:57:33.059Z,56.12
2022-09-18T08:59:44.513Z,56.21
2022-09-18T09:02:02.526Z,56.29
2022-09-18T09:04:10.589Z,56.01
2022-09-18T09:06:37.337Z,56.63
2022-09-18T09:09:14.975Z,56.73
2022-09-18T09:11:38.898Z,56.47
2022-09-18T09:14:52.826Z,56.87
2022-09-18T09:17:01.209Z,56.47
2022-09-18T09:19:26.754Z,56.51
2022-09-18T09:21:46.526Z,56.65
2022-09-18T09:24:17.456Z,56.91
2022-09-18T09:26:40.809Z,56.58
2022-09-18T09:29:03.472Z,57.03
2022-09-18T09:31:37.397Z,57.10
2022-09-18T09:34:04.063Z,57.29
2022-09-18T09:36:37.078Z,57.47
2022-09-18T09:38:59.857Z,57.50
2022-09-18T09:41:28.452Z,57.59
2022-09-18T09:43:57.371Z,57.24
2022-09-18T09:46:12.057Z,57.25
2022-09-18T09:48:32.493Z,57.57
2022-09-18T09:50:38.397Z,57.27
2022-09-18T09:52:42.613Z,56.95
2022-09-18T09:54:48.106Z,57.00
2022-09-18T09:57:15.094Z,57.28
2022-09-18T09:59:31.499Z,56.81
2022-09-18T10:02:32.136Z,56.91
2022-09-18T10:04:47.812Z,56.68
2022-09-18T10:07:31.801Z,56.37
2022-09-18T10:09:56.677Z,56.34
2022-09-18T10:12:37.812Z,56.40
2022-09-18T10:14:45.555Z,56.31
2022-09-18T10:16:51.928Z,56.50
2022-09-18T10:18:53.885Z,56.36
2022-09-18T10:21:35.080Z,56.25
2022-09-18T10:23:41.363Z,56.07
2022-09-18T10:25:57.064Z,56.05
2022-09-18T10:27:59.071Z,55.74
2022-09-18T10:30:06.802Z,55.59
2022-09-18T10:32:35.909Z,55.73
2022-09-18T10:34:49.588Z,55.76
2022-09-18T10:36:54.944Z,55.74
2022-09-18T10:38:59.329Z,55.75
2022-09-18T10:41:18.974Z,56.04
2022-09-18T10:43:20.755Z,55.42
2022-09-18T10:45:30.924Z,55.45
2022-09-18T10:47:49.017Z,55.33
2022-09-18T10:49:58.375Z,55.25
2022-09-18T10:52:21.213Z,55.00
2022-09-18T10:54:24.195Z,54.47
2022-09-18T10:56:38.072Z,54.63
2022-09-18T10:58:39.754Z,54.29
2022-09-18T11:01:03.947Z,54.00
2022-09-18T11:03:37.751Z,54.20
2022-09-18T11:05:50.388Z,54.04
2022-09-18T11:07:54.875Z,53.98
2022-09-18T11:09:56.375Z,53.90
2022-09-18T11:11:58.181Z,53.75
2022-09-18T11:14:16.089Z,53.79
2022-09-18T11:16:35.326Z,54.12
2022-09-18T11:18:37.668Z,53.73
2022-09-18T11:20:44.826Z,53.64
2022-09-18T11:22:51.468Z,53.60
2022-09-18T11:25:27.955Z,53.45
2022-09-18T11:27:46.266Z,53.58
2022-09-18T11:29:48.939Z,53.61
2022-09-18T11:32:10.579Z,53.47
2022-09-18T11:34:21.963Z,53.59
2022-09-18T11:36:30.334Z,53.63
2022-09-18T11:38:40.197Z,53.57
2022-09-18T11:40:45.458Z,53.70
2022-09-18T11:42:52.355Z,53.59
2022-09-18T11:45:06.233Z,53.74
2022-09-18T11:47:21.326Z,53.61
2022-09-18T11:49:28.067Z,53.84
2022-09-18T11:51:55.799Z,53.54
2022-09-18T11:54:07.637Z,53.64
2022-09-18T11:56:24.606Z,53.29
2022-09-18T11:58:38.130Z,53.31
2022-09-18T12:00:51.477Z,53.49
2022-09-18T12:03:06.147Z,53.54
2022-09-18T12:05:30.667Z,53.59
2022-09-18T12:07:49.291Z,53.72
2022-09-18T12:10:01.090Z,53.93
2022-09-18T12:12:12.218Z,53.77
2022-09-18T12:14:32.200Z,53.74
2022-09-18T12:17:00.738Z,53.85
2022-09-18T12:19:13.824Z,53.93
2022-09-18T12:21:22.796Z,53.86
2022-09-18T12:23:26.489Z,54.08
2022-09-18T12:25:48.305Z,54.29
2022-09-18T12:28:36.850Z,54.32
2022-09-18T12:31:04.033Z,54.09
2022-09-18T12:33:41.749Z,54.13
2022-09-18T12:36:02.519Z,54.14
2022-09-18T12:38:16.002Z,54.17
2022-09-18T12:40:27.539Z,54.12
2022-09-18T12:42:43.959Z,54.07
2022-09-18T12:45:15.986Z,54.16
2022-09-18T12:47:32.719Z,54.15
2022-09-18T12:49:44.568Z,54.29
2022-09-18T12:51:53.101Z,54.26
2022-09-18T12:54:16.948Z,54.30
2022-09-18T12:56:52.891Z,54.38
2022-09-18T12:59:07.511Z,54.50
2022-09-18T13:01:24.678Z,54.36
2022-09-18T13:03:34.659Z,54.38
2022-09-18T13:05:43.983Z,54.25
2022-09-18T13:08:26.568Z,54.77
2022-09-18T13:10:39.196Z,54.72
2022-09-18T13:12:51.633Z,54.62
2022-09-18T13:15:00.221Z,54.89
2022-09-18T13:17:15.884Z,54.75
2022-09-18T13:19:34.180Z,54.83
2022-09-18T13:21:41.791Z,54.82
2022-09-18T13:23:45.384Z,54.74
2022-09-18T13:25:49.441Z,54.76
2022-09-18T13:27:55.694Z,54.84
2022-09-18T13:29:59.439Z,54.88
2022-09-18T13:32:01.249Z,54.78
2022-09-18T13:34:15.216Z,54.77
2022-09-18T13:36:30.777Z,55.17
2022-09-18T13:38:37.131Z,55.23
2022-09-18T13:40:48.303Z,55.35
2022-09-18T13:42:49.981Z,55.25
2022-09-18T13:44:51.901Z,55.43
2022-09-18T13:46:58.629Z,55.58
2022-09-18T13:49:17.665Z,55.46
2022-09-18T13:51:32.319Z,55.50
2022-09-18T13:53:38.359Z,55.37
2022-09-18T13:55:50.563Z,55.31
2022-09-18T13:58:12.457Z,55.22
2022-09-18T14:00:20.621Z,55.24
2022-09-18T14:02:33.068Z,55.15
2022-09-18T14:04:40.582Z,55.30
2022-09-18T14:06:43.845Z,55.08
2022-09-18T14:08:45.644Z,55.22
2022-09-18T14:11:05.076Z,55.10
2022-09-18T14:13:35.798Z,55.26
2022-09-18T14:15:37.586Z,55.22
2022-09-18T14:17:43.303Z,55.26
2022-09-18T14:19:46.032Z,55.23
2022-09-18T14:21:49.781Z,55.22
2022-09-18T14:24:03.055Z,55.17
2022-09-18T14:26:40.029Z,55.24
2022-09-18T14:28:47.373Z,55.15
2022-09-18T14:31:27.890Z,55.16
2022-09-18T14:33:31.639Z,55.09
2022-09-18T14:35:54.545Z,55.11
2022-09-18T14:37:56.231Z,55.15
2022-09-18T14:39:58.802Z,54.97
2022-09-18T14:42:12.344Z,55.05
2022-09-18T14:44:17.807Z,55.05
2022-09-18T14:46:21.727Z,55.04
2022-09-18T14:48:29.959Z,54.99
2022-09-18T14:50:37.683Z,55.07
2022-09-18T14:52:43.628Z,55.07
2022-09-18T14:54:47.560Z,55.04
2022-09-18T14:56:51.522Z,55.06
2022-09-18T14:58:53.281Z,55.17
2022-09-18T15:00:55.956Z,55.01
2022-09-18T15:03:01.895Z,54.91
2022-09-18T15:05:11.197Z,55.10
2022-09-18T15:07:21.234Z,54.94
2022-09-18T15:09:32.556Z,55.01
2022-09-18T15:11:46.932Z,55.01
2022-09-18T15:13:56.603Z,55.03
2022-09-18T15:16:05.513Z,55.02
2022-09-18T15:18:41.477Z,55.12
2022-09-18T15:20:51.419Z,55.04
2022-09-18T15:22:53.674Z,54.94
2022-09-18T15:24:58.684Z,55.24
2022-09-18T15:27:04.356Z,55.04
2022-09-18T15:29:19.222Z,55.13
2022-09-18T15:31:23.721Z,55.27
2022-09-18T15:33:27.459Z,55.29
2022-09-18T15:35:36.546Z,55.47
2022-09-18T15:37:51.961Z,55.40
2022-09-18T15:40:24.599Z,55.34
2022-09-18T15:42:35.543Z,55.31
2022-09-18T15:44:40.275Z,55.35
2022-09-18T15:46:44.964Z,55.26
2022-09-18T15:48:50.919Z,55.38
2022-09-18T15:51:26.545Z,55.58
2022-09-18T15:53:29.245Z,55.52
2022-09-18T15:55:33.646Z,55.38
2022-09-18T15:57:37.107Z,55.54
2022-09-18T15:59:42.572Z,55.57
2022-09-18T16:01:48.469Z,55.54
2022-09-18T16:03:59.407Z,55.80
2022-09-18T16:06:05.082Z,55.60
2022-09-18T16:08:29.685Z,55.72
2022-09-18T16:10:34.616Z,55.93
2022-09-18T16:12:39.877Z,55.66
2022-09-18T16:14:47.089Z,55.81
2022-09-18T16:16:48.468Z,55.71
2022-09-18T16:19:10.252Z,55.76
2022-09-18T16:21:12.402Z,55.89
2022-09-18T16:23:19.973Z,55.97
2022-09-18T16:25:27.448Z,56.02
2022-09-18T16:27:29.357Z,55.89
2022-09-18T16:29:40.523Z,55.88
2022-09-18T16:31:44.763Z,55.85
2022-09-18T16:34:01.645Z,56.17
2022-09-18T16:36:11.432Z,55.99
2022-09-18T16:38:15.083Z,55.78
2022-09-18T16:40:20.843Z,55.88
2022-09-18T16:42:24.782Z,55.90
2022-09-18T16:47:07.919Z,55.94
2022-09-18T16:49:14.736Z,56.00
2022-09-18T16:51:19.047Z,55.82
2022-09-18T16:53:23.329Z,55.88
2022-09-18T16:55:25.558Z,56.07
2022-09-18T16:57:29.296Z,56.05
2022-09-18T16:59:32.717Z,55.91
2022-09-18T17:01:54.198Z,56.14
2022-09-18T17:04:00.298Z,56.09
2022-09-18T17:06:02.601Z,55.96
2022-09-18T17:08:05.437Z,56.14
2022-09-18T17:10:09.577Z,56.01
2022-09-18T17:12:11.251Z,56.00
2022-09-18T17:14:18.692Z,56.19
2022-09-18T17:16:41.306Z,56.13
2022-09-18T17:18:46.757Z,56.19
2022-09-18T17:20:49.182Z,56.13
2022-09-18T17:22:51.459Z,56.09
2022-09-18T17:24:53.124Z,56.17
2022-09-18T17:26:54.888Z,56.34
2022-09-18T17:28:59.356Z,56.63
2022-09-18T17:31:09.208Z,56.34
2022-09-18T17:33:11.198Z,56.39
2022-09-18T17:35:13.452Z,56.36
2022-09-18T17:37:15.351Z,56.65
2022-09-18T17:39:17.163Z,56.46
2022-09-18T17:41:19.666Z,56.32
2022-09-18T17:43:21.276Z,56.34
2022-09-18T17:45:26.159Z,56.38
2022-09-18T17:47:27.810Z,56.51
2022-09-18T17:49:33.006Z,56.51
2022-09-18T17:51:34.650Z,56.69
2022-09-18T17:53:36.265Z,56.62
2022-09-18T17:55:38.007Z,56.64
2022-09-18T17:57:39.774Z,56.84
2022-09-18T17:59:43.834Z,56.54
2022-09-18T18:01:47.219Z,56.63
2022-09-18T18:03:48.906Z,56.55
2022-09-18T18:05:57.889Z,56.48
2022-09-18T18:07:59.498Z,56.47
2022-09-18T18:10:01.584Z,56.46
2022-09-18T18:12:11.793Z,56.71
2022-09-18T18:14:13.495Z,56.69
2022-09-18T18:16:24.825Z,56.57
2022-09-18T18:18:27.274Z,56.54
2022-09-18T18:20:31.139Z,56.72
2022-09-18T18:22:32.908Z,56.67
2022-09-18T18:24:34.503Z,56.58
2022-09-18T18:26:38.058Z,56.98
2022-09-18T18:28:40.993Z,56.90
2022-09-18T18:30:46.216Z,56.77
2022-09-18T18:32:53.038Z,56.99
2022-09-18T18:34:55.464Z,56.81
2022-09-18T18:36:57.522Z,57.11
2022-09-18T18:39:11.935Z,56.95
2022-09-18T18:41:15.055Z,56.79
2022-09-18T18:43:16.849Z,56.70
2022-09-18T18:45:18.712Z,56.89
2022-09-18T18:47:20.581Z,56.77
2022-09-18T18:49:24.099Z,56.86
2022-09-18T18:51:26.747Z,56.78
2022-09-18T18:53:31.699Z,56.87
2022-09-18T18:55:48.471Z,56.65
2022-09-18T18:57:50.367Z,56.76
2022-09-18T18:59:52.088Z,56.86
2022-09-18T19:01:57.733Z,56.64
2022-09-18T19:04:08.694Z,57.01
2022-09-18T19:06:14.162Z,56.74
2022-09-18T19:08:16.428Z,56.85
2022-09-18T19:10:21.510Z,56.79
2022-09-18T19:12:26.952Z,57.03
2022-09-18T19:14:31.740Z,56.86
2022-09-18T19:16:33.612Z,57.17
2022-09-18T19:18:36.293Z,56.91
2022-09-18T19:20:38.118Z,57.15
2022-09-18T19:22:39.809Z,56.95
2022-09-18T19:24:41.876Z,56.88
2022-09-18T19:26:47.983Z,56.92
2022-09-18T19:29:05.865Z,57.13
2022-09-18T19:31:17.604Z,57.23
2022-09-18T19:33:21.087Z,57.07
2022-09-18T19:35:23.097Z,57.07
2022-09-18T19:37:24.735Z,57.21
2022-09-18T19:39:27.125Z,57.05
2022-09-18T19:41:53.289Z,56.75
2022-09-18T19:43:58.182Z,56.53
2022-09-18T19:46:01.017Z,56.52
2022-09-18T19:48:05.090Z,56.42
2022-09-18T19:50:16.738Z,56.47
2022-09-18T19:52:28.627Z,56.31
2022-09-18T19:54:31.144Z,56.41
2022-09-18T19:56:42.932Z,56.36
2022-09-18T19:58:52.586Z,56.29
2022-09-18T20:00:54.372Z,56.23
2022-09-18T20:03:00.028Z,56.19
2022-09-18T20:05:02.093Z,56.11
2022-09-18T20:07:03.986Z,55.75
2022-09-18T20:09:11.126Z,56.20
2022-09-18T20:11:12.994Z,56.04
2022-09-18T20:13:16.563Z,55.91
2022-09-18T20:15:18.386Z,56.21
2022-09-18T20:17:21.943Z,56.11
2022-09-18T20:19:35.820Z,56.17
2022-09-18T20:21:45.316Z,56.04
2022-09-18T20:23:51.091Z,56.19
2022-09-18T20:25:58.691Z,56.18
2022-09-18T20:28:02.273Z,56.33
2022-09-18T20:30:08.791Z,56.13
2022-09-18T20:32:17.658Z,56.17
2022-09-18T20:34:22.472Z,56.24
2022-09-18T20:36:26.360Z,56.21
2022-09-18T20:38:32.418Z,56.02
2022-09-18T20:40:34.421Z,56.24
2022-09-18T20:42:38.922Z,56.29
2022-09-18T20:44:40.520Z,56.42
2022-09-18T20:46:43.020Z,56.32
2022-09-18T20:48:46.309Z,56.31
2022-09-18T20:50:49.286Z,56.26
2022-09-18T20:52:50.863Z,56.40
2022-09-18T20:54:53.015Z,56.34
2022-09-18T20:56:57.748Z,56.34
2022-09-18T20:59:04.800Z,56.55
2022-09-18T21:01:20.430Z,56.47
2022-09-18T21:03:22.602Z,56.36
2022-09-18T21:05:24.422Z,56.40
2022-09-18T21:07:26.255Z,56.59
2022-09-18T21:09:29.078Z,56.32
2022-09-18T21:11:38.025Z,56.50
2022-09-18T21:13:43.701Z,56.33
2022-09-18T21:15:48.818Z,56.31
2022-09-18T21:17:51.337Z,56.38
2022-09-18T21:19:52.958Z,56.43
2022-09-18T21:21:54.825Z,56.31
2022-09-18T21:23:58.618Z,56.30
2022-09-18T21:26:00.266Z,56.45
2022-09-18T21:28:05.912Z,56.38
2022-09-18T21:30:11.187Z,56.45
2022-09-18T21:32:12.869Z,56.41
2022-09-18T21:34:23.516Z,56.40
2022-09-18T21:36:27.749Z,56.36
2022-09-18T21:38:29.815Z,56.50
2022-09-18T21:40:31.893Z,56.44
2022-09-18T21:42:34.240Z,56.39
2022-09-18T21:44:39.687Z,56.38
2022-09-18T21:46:42.931Z,56.58
2022-09-18T21:48:48.471Z,56.58
2022-09-18T21:50:50.289Z,56.80
2022-09-18T21:52:51.849Z,56.44
2022-09-18T21:54:53.530Z,56.53
2022-09-18T21:56:58.640Z,56.73
2022-09-18T21:59:00.458Z,56.55
2022-09-18T22:01:15.760Z,56.71
2022-09-18T22:03:17.427Z,56.63
2022-09-18T22:05:19.322Z,56.51
2022-09-18T22:07:21.446Z,56.71
2022-09-18T22:09:25.878Z,56.59
2022-09-18T22:11:30.405Z,56.58
2022-09-18T22:13:35.098Z,56.83
2022-09-18T22:15:36.744Z,56.75
2022-09-18T22:17:39.176Z,56.58
2022-09-18T22:21:57.266Z,56.75
2022-09-18T22:24:08.868Z,56.71
2022-09-18T22:26:10.527Z,56.83
2022-09-18T22:28:14.093Z,56.66
2022-09-18T22:30:15.815Z,56.67
2022-09-18T22:32:17.347Z,56.66
2022-09-18T22:34:23.184Z,56.82
2022-09-18T22:36:25.465Z,56.80
2022-09-18T22:38:27.034Z,56.76
2022-09-18T22:40:29.199Z,56.84
2022-09-18T22:42:30.878Z,56.81
2022-09-18T22:44:32.420Z,56.72
2022-09-18T22:46:36.930Z,56.76
2022-09-18T22:48:38.810Z,56.62
2022-09-18T22:50:40.483Z,56.75
2022-09-18T22:52:45.155Z,56.67
2022-09-18T22:54:49.312Z,56.73
2022-09-18T22:56:54.014Z,56.63
2022-09-18T22:58:56.962Z,56.57
2022-09-18T23:01:13.608Z,56.49
2022-09-18T23:03:15.142Z,56.55
2022-09-18T23:05:17.555Z,56.56
2022-09-18T23:07:19.375Z,56.59
2022-09-18T23:09:24.901Z,56.43
2022-09-18T23:11:32.208Z,56.40
2022-09-18T23:13:35.256Z,56.68
2022-09-18T23:15:39.298Z,56.49
2022-09-18T23:17:44.197Z,56.62
2022-09-18T23:19:48.214Z,56.69
2022-09-18T23:21:50.706Z,56.63
2022-09-18T23:23:54.112Z,56.56
2022-09-18T23:25:56.222Z,56.58
2022-09-18T23:27:58.158Z,56.61
2022-09-18T23:30:03.551Z,56.60
2022-09-18T23:32:05.539Z,56.52
2022-09-18T23:34:13.635Z,56.58
2022-09-18T23:36:19.265Z,56.68
2022-09-18T23:38:20.907Z,56.66
2022-09-18T23:40:22.685Z,56.34
2022-09-18T23:42:25.265Z,56.25
2022-09-18T23:44:31.349Z,56.51
2022-09-18T23:46:35.999Z,56.43
2022-09-18T23:48:38.006Z,56.56
2022-09-18T23:50:42.287Z,56.63
2022-09-18T23:52:43.965Z,56.69
2022-09-18T23:54:47.939Z,56.64
2022-09-18T23:56:50.157Z,56.72
2022-09-18T23:58:59.040Z,56.84
